sensor_id;sensor_type;location;lat;lon;timestamp;P1;durP1;ratioP1;P2;durP2;ratioP2
6727;SDS011;3401;52.504;13.430;2022-09-21T13:34:31;3.13;;;0.90;;
6727;SDS011;3401;52.504;13.430;2022-09-21T13:37:23;762.33;;;695.30;;
6727;SDS011;3401;52.504;13.430;2022-09-21T13:42:45;1.73;;;0.50;;
6727;SDS011;3401;52.504;13.430;2022-09-21T13:48:11;0.80;;;0.70;;
6727;SDS011;3401;52.504;13.430;2022-09-21T13:50:41;1.20;;;0.97;;
6727;SDS011;3401;52.504;13.430;2022-09-21T13:53:15;83.83;;;58.90;;
6727;SDS011;3401;52.504;13.430;2022-09-21T13:55:47;0.83;;;0.60;;
6727;SDS011;3401;52.504;13.430;2022-09-21T13:58:17;0.93;;;0.80;;
6727;SDS011;3401;52.504;13.430;2022-09-21T14:00:49;278.63;;;217.27;;
6727;SDS011;3401;52.504;13.430;2022-09-21T14:03:20;499.37;;;442.40;;
6727;SDS011;3401;52.504;13.430;2022-09-21T14:05:50;43.97;;;31.50;;
6727;SDS011;3401;52.504;13.430;2022-09-21T14:08:20;806.83;;;532.90;;
6727;SDS011;3401;52.504;13.430;2022-09-21T14:10:49;835.73;;;580.43;;
6727;SDS011;3401;52.504;13.430;2022-09-21T14:13:23;917.43;;;835.97;;
6727;SDS011;3401;52.504;13.430;2022-09-21T14:15:52;851.17;;;763.50;;
6727;SDS011;3401;52.504;13.430;2022-09-21T14:18:32;908.37;;;743.63;;
6727;SDS011;3401;52.504;13.430;2022-09-21T14:21:09;887.10;;;635.90;;
6727;SDS011;3401;52.504;13.430;2022-09-21T14:24:07;879.90;;;563.20;;
6727;SDS011;3401;52.504;13.430;2022-09-21T14:26:35;877.77;;;552.00;;
6727;SDS011;3401;52.504;13.430;2022-09-21T14:29:14;831.10;;;477.07;;
6727;SDS011;3401;52.504;13.430;2022-09-21T14:31:43;839.07;;;521.00;;
6727;SDS011;3401;52.504;13.430;2022-09-21T14:34:11;880.00;;;586.43;;
6727;SDS011;3401;52.504;13.430;2022-09-21T14:36:42;916.40;;;698.27;;
6727;SDS011;3401;52.504;13.430;2022-09-21T14:39:14;957.63;;;758.33;;
6727;SDS011;3401;52.504;13.430;2022-09-21T14:41:42;922.53;;;762.40;;
6727;SDS011;3401;52.504;13.430;2022-09-21T14:44:15;895.10;;;810.10;;
6727;SDS011;3401;52.504;13.430;2022-09-21T14:46:46;593.10;;;548.27;;
6727;SDS011;3401;52.504;13.430;2022-09-21T14:52:11;9.53;;;8.93;;
6727;SDS011;3401;52.504;13.430;2022-09-21T14:54:57;303.97;;;284.13;;
6727;SDS011;3401;52.504;13.430;2022-09-21T14:57:37;401.10;;;371.57;;
6727;SDS011;3401;52.504;13.430;2022-09-21T15:00:14;519.93;;;478.60;;
6727;SDS011;3401;52.504;13.430;2022-09-21T15:02:47;694.43;;;640.33;;
6727;SDS011;3401;52.504;13.430;2022-09-21T15:05:17;889.03;;;822.83;;
6727;SDS011;3401;52.504;13.430;2022-09-21T15:07:48;945.53;;;875.07;;
6727;SDS011;3401;52.504;13.430;2022-09-21T15:10:36;1030.10;;;949.03;;
6727;SDS011;3401;52.504;13.430;2022-09-21T15:13:26;1098.07;;;993.03;;
6727;SDS011;3401;52.504;13.430;2022-09-21T15:16:05;1093.47;;;992.97;;
6727;SDS011;3401;52.504;13.430;2022-09-21T15:18:38;1062.90;;;968.00;;
6727;SDS011;3401;52.504;13.430;2022-09-21T15:21:15;1019.03;;;926.93;;
6727;SDS011;3401;52.504;13.430;2022-09-21T15:23:46;1008.57;;;910.97;;
6727;SDS011;3401;52.504;13.430;2022-09-21T15:26:16;1027.60;;;930.60;;
6727;SDS011;3401;52.504;13.430;2022-09-21T15:28:47;1020.53;;;918.27;;
6727;SDS011;3401;52.504;13.430;2022-09-21T15:31:34;1039.33;;;936.40;;
6727;SDS011;3401;52.504;13.430;2022-09-21T15:34:03;976.97;;;875.93;;
6727;SDS011;3401;52.504;13.430;2022-09-21T15:36:35;966.53;;;865.60;;
6727;SDS011;3401;52.504;13.430;2022-09-21T15:39:04;945.67;;;800.37;;
6727;SDS011;3401;52.504;13.430;2022-09-21T15:41:36;941.63;;;747.17;;
6727;SDS011;3401;52.504;13.430;2022-09-21T15:44:06;928.53;;;707.80;;
6727;SDS011;3401;52.504;13.430;2022-09-21T15:46:38;921.07;;;699.27;;
6727;SDS011;3401;52.504;13.430;2022-09-21T15:49:08;924.83;;;698.43;;
6727;SDS011;3401;52.504;13.430;2022-09-21T15:51:37;945.13;;;752.03;;
6727;SDS011;3401;52.504;13.430;2022-09-21T15:54:19;934.17;;;708.17;;
6727;SDS011;3401;52.504;13.430;2022-09-21T15:56:49;930.73;;;709.03;;
6727;SDS011;3401;52.504;13.430;2022-09-21T15:59:18;939.23;;;742.37;;
6727;SDS011;3401;52.504;13.430;2022-09-21T16:01:48;933.83;;;744.07;;
6727;SDS011;3401;52.504;13.430;2022-09-21T16:04:16;881.83;;;672.20;;
6727;SDS011;3401;52.504;13.430;2022-09-21T16:06:45;941.20;;;760.33;;
6727;SDS011;3401;52.504;13.430;2022-09-21T16:09:33;946.33;;;804.97;;
6727;SDS011;3401;52.504;13.430;2022-09-21T16:14:46;930.93;;;748.27;;
6727;SDS011;3401;52.504;13.430;2022-09-21T16:17:27;947.73;;;713.00;;
6727;SDS011;3401;52.504;13.430;2022-09-21T16:20:05;909.70;;;625.83;;
6727;SDS011;3401;52.504;13.430;2022-09-21T16:22:36;930.73;;;704.33;;
6727;SDS011;3401;52.504;13.430;2022-09-21T16:25:21;926.00;;;672.00;;
6727;SDS011;3401;52.504;13.430;2022-09-21T16:27:50;939.10;;;690.70;;
6727;SDS011;3401;52.504;13.430;2022-09-21T16:33:36;902.23;;;588.97;;
6727;SDS011;3401;52.504;13.430;2022-09-21T16:38:48;922.23;;;663.20;;
6727;SDS011;3401;52.504;13.430;2022-09-21T16:41:20;898.53;;;568.40;;
6727;SDS011;3401;52.504;13.430;2022-09-21T16:43:48;881.73;;;538.40;;
6727;SDS011;3401;52.504;13.430;2022-09-21T16:46:16;880.07;;;565.43;;
6727;SDS011;3401;52.504;13.430;2022-09-21T16:48:44;845.37;;;474.47;;
6727;SDS011;3401;52.504;13.430;2022-09-21T16:51:12;877.20;;;511.80;;
6727;SDS011;3401;52.504;13.430;2022-09-21T16:53:41;882.47;;;530.90;;
6727;SDS011;3401;52.504;13.430;2022-09-21T16:56:08;882.70;;;527.40;;
6727;SDS011;3401;52.504;13.430;2022-09-21T16:58:40;889.83;;;564.70;;
6727;SDS011;3401;52.504;13.430;2022-09-21T17:01:09;875.43;;;504.30;;
6727;SDS011;3401;52.504;13.430;2022-09-21T17:03:38;861.67;;;472.07;;
6727;SDS011;3401;52.504;13.430;2022-09-21T17:06:07;870.60;;;521.23;;
6727;SDS011;3401;52.504;13.430;2022-09-21T17:08:37;894.37;;;572.90;;
6727;SDS011;3401;52.504;13.430;2022-09-21T17:11:05;860.50;;;487.00;;
6727;SDS011;3401;52.504;13.430;2022-09-21T17:13:32;841.90;;;439.87;;
6727;SDS011;3401;52.504;13.430;2022-09-21T17:16:02;889.10;;;540.80;;
6727;SDS011;3401;52.504;13.430;2022-09-21T17:18:30;893.57;;;546.73;;
6727;SDS011;3401;52.504;13.430;2022-09-21T17:20:57;893.10;;;569.03;;
6727;SDS011;3401;52.504;13.430;2022-09-21T17:23:26;887.80;;;538.80;;
6727;SDS011;3401;52.504;13.430;2022-09-21T17:25:54;878.60;;;478.07;;
6727;SDS011;3401;52.504;13.430;2022-09-21T17:28:23;879.07;;;497.80;;
6727;SDS011;3401;52.504;13.430;2022-09-21T17:30:51;874.50;;;488.50;;
6727;SDS011;3401;52.504;13.430;2022-09-21T17:33:20;900.63;;;576.33;;
6727;SDS011;3401;52.504;13.430;2022-09-21T17:35:51;908.73;;;579.13;;
6727;SDS011;3401;52.504;13.430;2022-09-21T17:38:21;833.05;;;435.15;;
6727;SDS011;3401;52.504;13.430;2022-09-21T17:40:49;864.37;;;454.87;;
6727;SDS011;3401;52.504;13.430;2022-09-21T17:43:22;900.10;;;550.83;;
6727;SDS011;3401;52.504;13.430;2022-09-21T17:45:53;892.90;;;537.57;;
6727;SDS011;3401;52.504;13.430;2022-09-21T17:48:23;838.77;;;535.43;;
6727;SDS011;3401;52.504;13.430;2022-09-21T17:50:54;884.53;;;508.67;;
6727;SDS011;3401;52.504;13.430;2022-09-21T17:53:21;840.43;;;547.57;;
6727;SDS011;3401;52.504;13.430;2022-09-21T17:56:19;844.83;;;624.87;;
6727;SDS011;3401;52.504;13.430;2022-09-21T17:58:54;850.27;;;608.90;;
6727;SDS011;3401;52.504;13.430;2022-09-21T18:01:25;815.40;;;573.13;;
6727;SDS011;3401;52.504;13.430;2022-09-21T18:03:56;818.63;;;576.43;;
6727;SDS011;3401;52.504;13.430;2022-09-21T18:06:24;819.40;;;564.37;;
6727;SDS011;3401;52.504;13.430;2022-09-21T18:08:52;841.97;;;662.07;;
6727;SDS011;3401;52.504;13.430;2022-09-21T18:11:34;851.03;;;661.43;;
6727;SDS011;3401;52.504;13.430;2022-09-21T18:14:05;817.13;;;605.87;;
6727;SDS011;3401;52.504;13.430;2022-09-21T18:16:37;836.00;;;618.53;;
6727;SDS011;3401;52.504;13.430;2022-09-21T18:19:18;846.27;;;612.63;;
6727;SDS011;3401;52.504;13.430;2022-09-21T18:21:47;791.90;;;571.67;;
6727;SDS011;3401;52.504;13.430;2022-09-21T18:24:18;851.00;;;604.90;;
6727;SDS011;3401;52.504;13.430;2022-09-21T18:26:46;840.00;;;613.47;;
6727;SDS011;3401;52.504;13.430;2022-09-21T18:29:23;819.77;;;605.80;;
6727;SDS011;3401;52.504;13.430;2022-09-21T18:32:18;838.50;;;519.93;;
6727;SDS011;3401;52.504;13.430;2022-09-21T18:34:57;856.30;;;491.70;;
6727;SDS011;3401;52.504;13.430;2022-09-21T18:37:30;835.57;;;491.93;;
6727;SDS011;3401;52.504;13.430;2022-09-21T18:40:00;853.57;;;505.37;;
6727;SDS011;3401;52.504;13.430;2022-09-21T18:42:32;855.23;;;487.60;;
6727;SDS011;3401;52.504;13.430;2022-09-21T18:45:07;867.40;;;536.40;;
6727;SDS011;3401;52.504;13.430;2022-09-21T18:47:38;864.60;;;509.47;;
6727;SDS011;3401;52.504;13.430;2022-09-21T18:50:14;834.30;;;475.83;;
6727;SDS011;3401;52.504;13.430;2022-09-21T18:52:46;887.00;;;516.23;;
6727;SDS011;3401;52.504;13.430;2022-09-21T18:55:20;856.40;;;450.87;;
6727;SDS011;3401;52.504;13.430;2022-09-21T18:57:50;892.63;;;516.50;;
6727;SDS011;3401;52.504;13.430;2022-09-21T19:00:18;878.60;;;453.50;;
6727;SDS011;3401;52.504;13.430;2022-09-21T19:02:46;887.17;;;485.30;;
6727;SDS011;3401;52.504;13.430;2022-09-21T19:05:36;889.20;;;481.57;;
6727;SDS011;3401;52.504;13.430;2022-09-21T19:08:06;887.30;;;490.93;;
6727;SDS011;3401;52.504;13.430;2022-09-21T19:10:37;894.00;;;509.77;;
6727;SDS011;3401;52.504;13.430;2022-09-21T19:13:09;893.77;;;479.17;;
6727;SDS011;3401;52.504;13.430;2022-09-21T19:15:42;872.80;;;427.50;;
6727;SDS011;3401;52.504;13.430;2022-09-21T19:18:33;873.33;;;429.83;;
6727;SDS011;3401;52.504;13.430;2022-09-21T19:21:08;887.93;;;479.80;;
6727;SDS011;3401;52.504;13.430;2022-09-21T19:23:41;863.88;;;416.65;;
6727;SDS011;3401;52.504;13.430;2022-09-21T19:26:11;887.87;;;477.87;;
6727;SDS011;3401;52.504;13.430;2022-09-21T19:28:46;863.40;;;419.60;;
6727;SDS011;3401;52.504;13.430;2022-09-21T19:31:16;879.53;;;471.17;;
6727;SDS011;3401;52.504;13.430;2022-09-21T19:33:45;875.92;;;444.65;;
6727;SDS011;3401;52.504;13.430;2022-09-21T19:36:18;855.85;;;393.30;;
6727;SDS011;3401;52.504;13.430;2022-09-21T19:38:46;875.10;;;444.03;;
6727;SDS011;3401;52.504;13.430;2022-09-21T19:41:17;878.93;;;479.60;;
6727;SDS011;3401;52.504;13.430;2022-09-21T19:43:49;855.37;;;458.63;;
6727;SDS011;3401;52.504;13.430;2022-09-21T19:46:23;861.17;;;419.97;;
6727;SDS011;3401;52.504;13.430;2022-09-21T19:48:59;860.33;;;428.73;;
6727;SDS011;3401;52.504;13.430;2022-09-21T19:51:34;855.97;;;431.03;;
6727;SDS011;3401;52.504;13.430;2022-09-21T19:54:04;858.53;;;419.00;;
6727;SDS011;3401;52.504;13.430;2022-09-21T19:56:53;877.37;;;446.00;;
6727;SDS011;3401;52.504;13.430;2022-09-21T19:59:38;877.60;;;464.77;;
6727;SDS011;3401;52.504;13.430;2022-09-21T20:02:09;866.57;;;457.83;;
6727;SDS011;3401;52.504;13.430;2022-09-21T20:04:40;859.50;;;412.43;;
6727;SDS011;3401;52.504;13.430;2022-09-21T20:07:19;852.30;;;397.23;;
6727;SDS011;3401;52.504;13.430;2022-09-21T20:09:52;877.43;;;466.50;;
6727;SDS011;3401;52.504;13.430;2022-09-21T20:12:24;854.97;;;396.83;;
6727;SDS011;3401;52.504;13.430;2022-09-21T20:14:53;854.33;;;413.87;;
6727;SDS011;3401;52.504;13.430;2022-09-21T20:17:23;869.13;;;437.63;;
6727;SDS011;3401;52.504;13.430;2022-09-21T20:19:52;871.47;;;452.93;;
6727;SDS011;3401;52.504;13.430;2022-09-21T20:22:26;869.60;;;435.40;;
6727;SDS011;3401;52.504;13.430;2022-09-21T20:24:57;861.00;;;413.50;;
6727;SDS011;3401;52.504;13.430;2022-09-21T20:27:27;863.20;;;409.77;;
6727;SDS011;3401;52.504;13.430;2022-09-21T20:29:59;880.60;;;436.30;;
6727;SDS011;3401;52.504;13.430;2022-09-21T20:32:28;873.23;;;417.53;;
6727;SDS011;3401;52.504;13.430;2022-09-21T20:34:56;874.25;;;417.38;;
6727;SDS011;3401;52.504;13.430;2022-09-21T20:37:25;869.47;;;411.53;;
6727;SDS011;3401;52.504;13.430;2022-09-21T20:39:55;873.67;;;410.83;;
6727;SDS011;3401;52.504;13.430;2022-09-21T20:42:23;868.88;;;418.40;;
6727;SDS011;3401;52.504;13.430;2022-09-21T20:44:52;863.13;;;393.25;;
6727;SDS011;3401;52.504;13.430;2022-09-21T20:47:19;876.60;;;430.73;;
6727;SDS011;3401;52.504;13.430;2022-09-21T20:49:49;874.63;;;426.00;;
6727;SDS011;3401;52.504;13.430;2022-09-21T20:52:17;876.87;;;433.43;;
6727;SDS011;3401;52.504;13.430;2022-09-21T20:54:45;868.40;;;397.07;;
6727;SDS011;3401;52.504;13.430;2022-09-21T20:57:15;879.33;;;444.67;;
6727;SDS011;3401;52.504;13.430;2022-09-21T20:59:42;873.28;;;425.33;;
6727;SDS011;3401;52.504;13.430;2022-09-21T21:02:11;873.10;;;424.67;;
6727;SDS011;3401;52.504;13.430;2022-09-21T21:04:39;880.00;;;441.63;;
6727;SDS011;3401;52.504;13.430;2022-09-21T21:07:07;882.60;;;441.57;;
6727;SDS011;3401;52.504;13.430;2022-09-21T21:09:35;882.43;;;448.37;;
6727;SDS011;3401;52.504;13.430;2022-09-21T21:12:04;885.43;;;461.03;;
6727;SDS011;3401;52.504;13.430;2022-09-21T21:14:32;886.85;;;469.02;;
6727;SDS011;3401;52.504;13.430;2022-09-21T21:16:59;887.00;;;469.27;;
6727;SDS011;3401;52.504;13.430;2022-09-21T21:19:27;894.53;;;516.43;;
6727;SDS011;3401;52.504;13.430;2022-09-21T21:21:56;897.27;;;510.57;;
6727;SDS011;3401;52.504;13.430;2022-09-21T21:24:24;897.23;;;508.27;;
6727;SDS011;3401;52.504;13.430;2022-09-21T21:27:10;875.90;;;434.60;;
6727;SDS011;3401;52.504;13.430;2022-09-21T21:29:38;875.53;;;439.90;;
6727;SDS011;3401;52.504;13.430;2022-09-21T21:32:06;885.53;;;481.47;;
6727;SDS011;3401;52.504;13.430;2022-09-21T21:34:34;884.65;;;456.75;;
6727;SDS011;3401;52.504;13.430;2022-09-21T21:37:02;871.80;;;431.53;;
6727;SDS011;3401;52.504;13.430;2022-09-21T21:39:29;881.08;;;446.70;;
6727;SDS011;3401;52.504;13.430;2022-09-21T21:41:57;890.13;;;489.93;;
6727;SDS011;3401;52.504;13.430;2022-09-21T21:44:26;892.13;;;484.67;;
6727;SDS011;3401;52.504;13.430;2022-09-21T21:46:54;891.77;;;492.33;;
6727;SDS011;3401;52.504;13.430;2022-09-21T21:49:40;893.27;;;497.63;;
6727;SDS011;3401;52.504;13.430;2022-09-21T21:52:08;876.97;;;439.20;;
6727;SDS011;3401;52.504;13.430;2022-09-21T21:54:37;895.53;;;497.20;;
6727;SDS011;3401;52.504;13.430;2022-09-21T21:57:05;890.37;;;490.30;;
6727;SDS011;3401;52.504;13.430;2022-09-21T21:59:34;874.55;;;438.95;;
6727;SDS011;3401;52.504;13.430;2022-09-21T22:02:02;887.53;;;480.37;;
6727;SDS011;3401;52.504;13.430;2022-09-21T22:04:30;871.90;;;419.90;;
6727;SDS011;3401;52.504;13.430;2022-09-21T22:06:57;864.33;;;402.60;;
6727;SDS011;3401;52.504;13.430;2022-09-21T22:09:25;868.37;;;410.37;;
6727;SDS011;3401;52.504;13.430;2022-09-21T22:11:53;878.83;;;448.97;;
6727;SDS011;3401;52.504;13.430;2022-09-21T22:14:21;870.88;;;432.88;;
6727;SDS011;3401;52.504;13.430;2022-09-21T22:16:50;864.10;;;406.75;;
6727;SDS011;3401;52.504;13.430;2022-09-21T22:19:18;867.80;;;416.83;;
6727;SDS011;3401;52.504;13.430;2022-09-21T22:21:45;882.03;;;451.20;;
6727;SDS011;3401;52.504;13.430;2022-09-21T22:24:19;872.13;;;435.42;;
6727;SDS011;3401;52.504;13.430;2022-09-21T22:26:47;877.83;;;456.88;;
6727;SDS011;3401;52.504;13.430;2022-09-21T22:29:15;885.00;;;469.77;;
6727;SDS011;3401;52.504;13.430;2022-09-21T22:31:44;871.27;;;444.37;;
6727;SDS011;3401;52.504;13.430;2022-09-21T22:34:13;873.23;;;479.17;;
6727;SDS011;3401;52.504;13.430;2022-09-21T22:36:41;864.88;;;450.85;;
6727;SDS011;3401;52.504;13.430;2022-09-21T22:39:09;848.75;;;413.33;;
6727;SDS011;3401;52.504;13.430;2022-09-21T22:41:38;852.15;;;443.70;;
6727;SDS011;3401;52.504;13.430;2022-09-21T22:44:06;842.50;;;396.60;;
6727;SDS011;3401;52.504;13.430;2022-09-21T22:46:34;836.65;;;392.85;;
6727;SDS011;3401;52.504;13.430;2022-09-21T22:49:01;839.03;;;400.38;;
6727;SDS011;3401;52.504;13.430;2022-09-21T22:51:30;850.25;;;441.30;;
6727;SDS011;3401;52.504;13.430;2022-09-21T22:53:58;832.60;;;391.73;;
6727;SDS011;3401;52.504;13.430;2022-09-21T22:56:27;834.65;;;403.08;;
6727;SDS011;3401;52.504;13.430;2022-09-21T22:58:56;834.70;;;392.83;;
6727;SDS011;3401;52.504;13.430;2022-09-21T23:01:24;843.17;;;414.88;;
6727;SDS011;3401;52.504;13.430;2022-09-21T23:03:53;837.38;;;414.75;;
6727;SDS011;3401;52.504;13.430;2022-09-21T23:06:21;844.20;;;415.63;;
6727;SDS011;3401;52.504;13.430;2022-09-21T23:08:53;824.58;;;371.90;;
6727;SDS011;3401;52.504;13.430;2022-09-21T23:11:22;828.45;;;388.92;;
6727;SDS011;3401;52.504;13.430;2022-09-21T23:13:52;825.58;;;369.45;;
6727;SDS011;3401;52.504;13.430;2022-09-21T23:16:20;830.40;;;388.48;;
6727;SDS011;3401;52.504;13.430;2022-09-21T23:18:49;820.97;;;362.58;;
6727;SDS011;3401;52.504;13.430;2022-09-21T23:21:17;816.38;;;351.52;;
6727;SDS011;3401;52.504;13.430;2022-09-21T23:23:45;818.95;;;360.60;;
6727;SDS011;3401;52.504;13.430;2022-09-21T23:26:15;827.38;;;382.60;;
6727;SDS011;3401;52.504;13.430;2022-09-21T23:28:44;838.33;;;389.30;;
6727;SDS011;3401;52.504;13.430;2022-09-21T23:31:13;830.47;;;388.88;;
6727;SDS011;3401;52.504;13.430;2022-09-21T23:33:41;824.42;;;381.60;;
6727;SDS011;3401;52.504;13.430;2022-09-21T23:36:10;819.30;;;365.05;;
6727;SDS011;3401;52.504;13.430;2022-09-21T23:38:38;804.10;;;335.45;;
6727;SDS011;3401;52.504;13.430;2022-09-21T23:41:07;821.55;;;374.17;;
6727;SDS011;3401;52.504;13.430;2022-09-21T23:43:36;806.80;;;336.23;;
6727;SDS011;3401;52.504;13.430;2022-09-21T23:46:04;817.65;;;368.75;;
6727;SDS011;3401;52.504;13.430;2022-09-21T23:48:32;803.22;;;333.23;;
6727;SDS011;3401;52.504;13.430;2022-09-21T23:51:00;802.70;;;329.75;;
6727;SDS011;3401;52.504;13.430;2022-09-21T23:53:28;814.00;;;373.75;;
6727;SDS011;3401;52.504;13.430;2022-09-21T23:55:56;800.53;;;339.42;;
6727;SDS011;3401;52.504;13.430;2022-09-21T23:58:24;813.17;;;370.98;;
